Time;durP1;ratioP1;P1;durP2;ratioP2;P2;SDS_P1;SDS_P2;PMS_P1;PMS_P2;Temp;Humidity;BMP_temperature;BMP_pressure;BME280_temperature;BME280_humidity;BME280_pressure;Samples;Min_cycle;Max_cycle;Signal;HPM_P1;HPM_P2
2023/10/01 00:00:43;;;;;;;;;;;;;;;;;;4985260;28;20156;-63
2023/10/01 00:03:09;;;;;;;25.40;13.60;;;;;;;;;;4980732;28;19923;-63
2023/10/01 00:05:38;;;;;;;24.63;13.02;;;;;;;;;;4978360;28;20572;-63
2023/10/01 00:08:08;;;;;;;22.10;11.77;;;;;;;;;;4979142;28;20444;-63
2023/10/01 00:10:34;;;;;;;21.80;12.33;;;;;;;;;;4986614;28;20046;-63
2023/10/01 00:13:03;;;;;;;20.67;12.95;;;;;;;;;;4982318;28;20130;-62
2023/10/01 00:15:30;;;;;;;24.17;13.15;;;;;;;;;;4980244;28;20133;-62
2023/10/01 00:17:58;;;;;;;25.30;12.80;;;;;;;;;;4965010;28;20047;-63
2023/10/01 00:20:27;;;;;;;24.02;12.77;;;;;;;;;;4961476;28;20050;-62
2023/10/01 00:22:57;;;;;;;22.00;12.90;;;;;;;;;;4984940;28;20430;-62
2023/10/01 00:25:24;;;;;;;25.58;14.25;;;;;;;;;;4977050;28;20466;-63
2023/10/01 00:27:51;;;;;;;22.55;12.48;;;;;;;;;;4985088;28;20057;-62
2023/10/01 00:30:19;;;;;;;23.73;13.00;;;;;;;;;;4954671;28;20431;-63
2023/10/01 00:32:47;;;;;;;26.27;12.88;;;;;;;;;;4954616;28;20059;-62
2023/10/01 00:35:13;;;;;;;22.13;12.98;;;;;;;;;;4964316;28;20046;-62
2023/10/01 00:37:40;;;;;;;21.05;12.23;;;;;;;;;;4986962;28;20134;-62
2023/10/01 00:40:10;;;;;;;24.23;13.07;;;;;;;;;;4982703;28;20121;-63
2023/10/01 00:42:38;;;;;;;26.15;13.38;;;;;;;;;;4984529;28;20046;-63
2023/10/01 00:45:07;;;;;;;22.95;12.48;;;;;;;;;;4981529;28;20050;-63
2023/10/01 00:47:39;;;;;;;23.45;13.38;;;;;;;;;;4982865;28;20406;-63
2023/10/01 00:50:08;;;;;;;21.73;12.27;;;;;;;;;;4978738;28;20065;-63
2023/10/01 00:52:37;;;;;;;24.38;12.85;;;;;;;;;;4964597;28;20533;-63
2023/10/01 00:55:04;;;;;;;21.80;12.10;;;;;;;;;;4954462;28;20415;-63
2023/10/01 00:57:30;;;;;;;23.77;12.07;;;;;;;;;;4973374;28;20047;-63
2023/10/01 00:59:57;;;;;;;26.45;13.57;;;;;;;;;;4980665;28;20129;-62
2023/10/01 01:02:24;;;;;;;21.27;13.15;;;;;;;;;;4966398;28;20053;-62
2023/10/01 01:07:36;;;;;;;23.17;12.27;;;;;;;;;;4971628;28;20051;-63
2023/10/01 01:10:03;;;;;;;22.25;13.45;;;;;;;;;;4963893;28;20419;-63
2023/10/01 01:12:32;;;;;;;19.23;11.48;;;;;;;;;;4972156;28;20046;-63
2023/10/01 01:14:59;;;;;;;22.50;12.32;;;;;;;;;;4982652;28;20052;-63
2023/10/01 01:17:25;;;;;;;23.75;12.25;;;;;;;;;;4970277;28;20074;-63
2023/10/01 01:19:55;;;;;;;25.60;12.43;;;;;;;;;;4965092;28;20130;-63
2023/10/01 01:22:29;;;;;;;22.17;11.93;;;;;;;;;;4968538;28;20064;-64
2023/10/01 01:24:57;;;;;;;23.75;13.23;;;;;;;;;;4953786;28;20483;-63
2023/10/01 01:27:23;;;;;;;26.50;13.55;;;;;;;;;;4970463;28;20043;-63
2023/10/01 01:29:50;;;;;;;23.38;13.02;;;;;;;;;;4973425;28;20322;-64
2023/10/01 01:32:17;;;;;;;21.63;12.88;;;;;;;;;;4953721;28;20047;-63
2023/10/01 01:34:45;;;;;;;22.20;11.57;;;;;;;;;;4953799;28;20051;-63
2023/10/01 01:37:19;;;;;;;23.73;12.38;;;;;;;;;;4961610;28;20047;-63
2023/10/01 01:39:50;;;;;;;20.33;12.10;;;;;;;;;;4961322;28;20051;-63
2023/10/01 01:42:19;;;;;;;21.55;12.70;;;;;;;;;;4961238;28;20479;-63
2023/10/01 01:44:47;;;;;;;21.23;11.68;;;;;;;;;;4961611;28;20055;-62
2023/10/01 01:47:15;;;;;;;24.65;13.40;;;;;;;;;;4965130;28;20042;-63
2023/10/01 01:49:43;;;;;;;24.60;12.90;;;;;;;;;;4957429;28;20427;-63
2023/10/01 01:52:09;;;;;;;22.00;13.05;;;;;;;;;;4961498;28;20047;-63
2023/10/01 01:54:39;;;;;;;21.88;11.88;;;;;;;;;;4967818;28;20141;-63
2023/10/01 01:57:13;;;;;;;23.35;12.68;;;;;;;;;;4962421;28;20055;-62
2023/10/01 01:59:41;;;;;;;23.55;12.23;;;;;;;;;;4960938;28;20053;-63
2023/10/01 02:02:10;;;;;;;22.65;12.80;;;;;;;;;;4963927;28;20059;-62
2023/10/01 02:04:58;;;;;;;22.50;12.40;;;;;;;;;;4964597;28;20473;-61
2023/10/01 02:07:23;;;;;;;22.75;12.02;;;;;;;;;;4961329;28;20047;-62
2023/10/01 02:09:51;;;;;;;21.80;11.95;;;;;;;;;;4953199;28;20495;-62
2023/10/01 02:12:24;;;;;;;19.27;10.63;;;;;;;;;;4953150;28;20135;-62
2023/10/01 02:14:54;;;;;;;22.70;12.20;;;;;;;;;;4961460;28;20057;-62
2023/10/01 02:17:22;;;;;;;25.10;12.98;;;;;;;;;;4964952;28;20487;-63
2023/10/01 02:19:49;;;;;;;25.90;12.27;;;;;;;;;;4978605;28;20334;-63
2023/10/01 02:22:17;;;;;;;28.48;13.95;;;;;;;;;;4963210;28;20070;-63
2023/10/01 02:24:54;;;;;;;27.83;15.70;;;;;;;;;;4953094;28;20050;-62
2023/10/01 02:27:26;;;;;;;28.80;15.18;;;;;;;;;;4957409;28;20046;-63
2023/10/01 02:33:15;;;;;;;30.45;17.42;;;;;;;;;;4943977;28;20521;-63
2023/10/01 02:35:41;;;;;;;31.15;15.25;;;;;;;;;;4956742;28;20059;-63
2023/10/01 02:38:36;;;;;;;29.33;15.10;;;;;;;;;;4965074;28;20494;-63
2023/10/01 02:40:57;;;;;;;23.95;12.43;;;;;;;;;;4956418;28;20070;-63
2023/10/01 02:43:26;;;;;;;23.65;12.77;;;;;;;;;;4956813;28;20488;-63
2023/10/01 02:45:52;;;;;;;27.70;14.52;;;;;;;;;;4957319;28;20546;-63
2023/10/01 02:48:18;;;;;;;28.90;14.23;;;;;;;;;;4976276;28;20051;-63
2023/10/01 02:50:45;;;;;;;21.95;11.82;;;;;;;;;;4975914;28;20054;-64
2023/10/01 02:53:15;;;;;;;22.33;11.73;;;;;;;;;;4976147;28;20442;-64
2023/10/01 02:55:45;;;;;;;25.77;12.85;;;;;;;;;;4975917;28;20134;-63
2023/10/01 02:58:20;;;;;;;22.30;12.25;;;;;;;;;;4976247;28;20047;-64
2023/10/01 03:00:50;;;;;;;21.42;11.05;;;;;;;;;;4975699;28;20054;-64
2023/10/01 03:03:18;;;;;;;20.30;10.10;;;;;;;;;;4992263;28;20057;-63
2023/10/01 03:05:45;;;;;;;20.35;9.90;;;;;;;;;;4995466;28;20185;-64
2023/10/01 03:08:25;;;;;;;23.88;9.65;;;;;;;;;;4979154;28;20050;-64
2023/10/01 03:10:52;;;;;;;26.55;10.57;;;;;;;;;;4975258;28;20073;-64
2023/10/01 03:13:30;;;;;;;19.48;10.38;;;;;;;;;;4956729;29;20488;-63
2023/10/01 03:18:39;;;;;;;23.05;10.30;;;;;;;;;;4975380;28;20051;-64
2023/10/01 03:21:07;;;;;;;24.10;12.27;;;;;;;;;;4975348;28;20047;-64
2023/10/01 03:23:34;;;;;;;26.70;12.95;;;;;;;;;;4975751;28;20051;-64
2023/10/01 03:26:08;;;;;;;25.30;12.10;;;;;;;;;;4975656;28;20055;-65
2023/10/01 03:29:14;;;;;;;22.55;10.20;;;;;;;;;;4985956;28;20076;-63
2023/10/01 03:31:25;;;;;;;25.95;10.95;;;;;;;;;;4955880;29;20074;-64
2023/10/01 03:33:53;;;;;;;22.33;11.20;;;;;;;;;;4956192;29;20047;-65
2023/10/01 03:36:25;;;;;;;27.33;10.48;;;;;;;;;;4959900;28;20137;-65
2023/10/01 03:38:57;;;;;;;24.48;11.90;;;;;;;;;;4975086;28;20135;-64
2023/10/01 03:41:27;;;;;;;21.83;10.73;;;;;;;;;;4974139;28;20086;-65
2023/10/01 03:43:57;;;;;;;22.17;10.25;;;;;;;;;;4975315;28;20051;-64
2023/10/01 03:46:26;;;;;;;22.13;11.02;;;;;;;;;;4975257;28;20420;-63
2023/10/01 03:49:00;;;;;;;19.48;9.43;;;;;;;;;;4974954;28;20081;-65
2023/10/01 03:54:14;;;;;;;21.02;8.85;;;;;;;;;;4987068;28;20131;-63
2023/10/01 03:56:45;;;;;;;18.00;9.68;;;;;;;;;;4959853;28;20110;-64
2023/10/01 03:59:16;;;;;;;17.85;8.32;;;;;;;;;;4955740;28;20087;-64
2023/10/01 04:04:27;;;;;;;17.48;9.43;;;;;;;;;;4963095;28;19940;-64
2023/10/01 04:06:55;;;;;;;16.83;9.40;;;;;;;;;;4955850;28;20130;-65
2023/10/01 04:09:26;;;;;;;20.38;9.00;;;;;;;;;;4969990;28;20061;-63
2023/10/01 04:11:52;;;;;;;;;;;;;;;;;;4976294;28;20040;-65
2023/10/01 04:14:19;;;;;;;20.05;9.50;;;;;;;;;;4970593;28;19926;-65
2023/10/01 04:16:48;;;;;;;21.23;10.43;;;;;;;;;;4980041;28;20043;-64
2023/10/01 04:19:18;;;;;;;19.00;9.13;;;;;;;;;;4971204;28;20081;-64
2023/10/01 04:21:50;;;;;;;18.95;8.75;;;;;;;;;;4954823;28;20184;-64
2023/10/01 04:24:19;;;;;;;19.85;8.00;;;;;;;;;;4957363;28;20101;-63
2023/10/01 04:26:46;;;;;;;18.20;8.07;;;;;;;;;;4978042;28;20039;-64
2023/10/01 04:29:16;;;;;;;19.67;9.10;;;;;;;;;;4974389;28;20042;-65
2023/10/01 04:31:48;;;;;;;18.40;8.50;;;;;;;;;;4965981;28;20050;-65
2023/10/01 04:34:17;;;;;;;18.98;8.50;;;;;;;;;;4968012;28;20058;-62
2023/10/01 04:36:44;;;;;;;19.80;8.95;;;;;;;;;;4969991;28;20137;-65
2023/10/01 04:39:11;;;;;;;18.38;8.98;;;;;;;;;;4974263;28;20053;-63
2023/10/01 04:41:39;;;;;;;18.33;8.45;;;;;;;;;;4959321;28;20056;-63
2023/10/01 04:44:13;;;;;;;22.55;9.38;;;;;;;;;;4954640;28;20053;-65
2023/10/01 04:46:40;;;;;;;17.75;8.63;;;;;;;;;;4963777;28;20185;-64
2023/10/01 04:49:26;;;;;;;17.77;7.47;;;;;;;;;;4974034;28;20498;-66
2023/10/01 04:51:56;;;;;;;17.45;7.88;;;;;;;;;;4972795;28;20525;-64
2023/10/01 04:54:25;;;;;;;18.73;8.77;;;;;;;;;;4962678;28;20508;-65
2023/10/01 04:56:55;;;;;;;18.35;8.05;;;;;;;;;;4962624;28;20061;-63
2023/10/01 04:59:21;;;;;;;17.53;8.10;;;;;;;;;;4973726;28;20468;-65
2023/10/01 05:01:56;;;;;;;17.35;8.32;;;;;;;;;;4965019;28;20312;-62
2023/10/01 05:04:23;;;;;;;20.40;9.05;;;;;;;;;;4966842;28;20053;-66
2023/10/01 05:06:59;;;;;;;19.55;8.80;;;;;;;;;;4966114;28;20661;-65
2023/10/01 05:09:29;;;;;;;18.85;8.95;;;;;;;;;;4968520;28;20043;-65
2023/10/01 05:11:56;;;;;;;18.13;8.90;;;;;;;;;;4969858;28;20050;-65
2023/10/01 05:14:23;;;;;;;22.13;10.15;;;;;;;;;;4962174;28;20051;-64
2023/10/01 05:16:54;;;;;;;20.70;9.38;;;;;;;;;;4954143;28;20142;-65
2023/10/01 05:19:23;;;;;;;19.85;8.00;;;;;;;;;;4960969;28;20146;-64
2023/10/01 05:21:52;;;;;;;18.67;8.43;;;;;;;;;;4976671;28;20048;-64
2023/10/01 05:24:34;;;;;;;22.85;10.45;;;;;;;;;;4966047;28;20127;-63
2023/10/01 05:27:02;;;;;;;16.75;7.70;;;;;;;;;;4963429;28;20050;-63
2023/10/01 05:29:31;;;;;;;19.25;8.55;;;;;;;;;;4977763;28;20350;-63
2023/10/01 05:31:59;;;;;;;19.27;8.00;;;;;;;;;;4971612;28;20053;-62
2023/10/01 05:34:26;;;;;;;18.48;8.70;;;;;;;;;;4969655;28;20081;-64
2023/10/01 05:37:08;;;;;;;19.55;8.75;;;;;;;;;;4974790;28;20046;-62
2023/10/01 05:39:54;;;;;;;17.98;8.93;;;;;;;;;;4966557;28;20126;-63
2023/10/01 05:42:24;;;;;;;18.65;10.23;;;;;;;;;;4975900;28;20474;-64
2023/10/01 05:44:51;;;;;;;16.70;8.38;;;;;;;;;;4957156;28;20061;-65
2023/10/01 05:47:18;;;;;;;21.50;9.18;;;;;;;;;;4972976;28;20054;-67
2023/10/01 05:49:49;;;;;;;19.13;8.88;;;;;;;;;;4970865;28;20219;-66
2023/10/01 05:52:17;;;;;;;17.50;7.95;;;;;;;;;;4963264;28;20051;-65
2023/10/01 05:54:52;;;;;;;20.10;9.48;;;;;;;;;;4964652;28;20043;-64
2023/10/01 05:57:19;;;;;;;20.33;9.32;;;;;;;;;;4960966;28;20047;-66
2023/10/01 05:59:56;;;;;;;22.20;9.55;;;;;;;;;;4969215;28;20065;-65
2023/10/01 06:02:41;;;;;;;19.55;9.05;;;;;;;;;;4976431;28;20400;-66
2023/10/01 06:05:25;;;;;;;18.50;10.00;;;;;;;;;;4959818;28;20582;-66
2023/10/01 06:07:53;;;;;;;19.90;9.50;;;;;;;;;;4976238;28;20050;-66
2023/10/01 06:10:26;;;;;;;22.08;10.57;;;;;;;;;;4976137;28;20057;-66
2023/10/01 06:12:56;;;;;;;20.25;9.82;;;;;;;;;;4971887;28;20098;-65
2023/10/01 06:15:29;;;;;;;18.88;10.48;;;;;;;;;;4971009;28;20047;-65
2023/10/01 06:18:00;;;;;;;19.63;10.57;;;;;;;;;;4975850;28;20406;-65
2023/10/01 06:20:27;;;;;;;20.40;10.48;;;;;;;;;;4979742;28;20050;-65
2023/10/01 06:22:55;;;;;;;20.55;8.55;;;;;;;;;;4973806;28;20163;-64
2023/10/01 06:25:37;;;;;;;20.38;9.85;;;;;;;;;;4973504;28;20055;-66
2023/10/01 06:28:09;;;;;;;26.80;10.93;;;;;;;;;;4974289;28;20125;-65
2023/10/01 06:30:40;;;;;;;21.20;8.77;;;;;;;;;;4977886;28;20054;-65
2023/10/01 06:33:09;;;;;;;21.45;9.25;;;;;;;;;;4977590;28;20085;-64
2023/10/01 06:35:38;;;;;;;23.27;9.68;;;;;;;;;;4980154;28;20051;-63
2023/10/01 06:38:04;;;;;;;25.85;10.07;;;;;;;;;;4970907;28;20047;-63
2023/10/01 06:40:32;;;;;;;23.48;9.88;;;;;;;;;;4974337;28;20050;-63
2023/10/01 06:42:59;;;;;;;24.48;10.52;;;;;;;;;;4972689;28;20133;-64
2023/10/01 06:45:39;;;;;;;22.45;9.10;;;;;;;;;;4972547;28;20495;-64
2023/10/01 06:48:09;;;;;;;18.95;8.75;;;;;;;;;;4971445;28;20054;-64
2023/10/01 06:50:39;;;;;;;22.33;10.13;;;;;;;;;;4973563;28;20467;-62
2023/10/01 06:53:07;;;;;;;22.48;9.70;;;;;;;;;;4970495;28;20047;-62
2023/10/01 06:55:36;;;;;;;22.00;8.57;;;;;;;;;;4968198;28;20164;-63
2023/10/01 06:58:06;;;;;;;20.60;8.57;;;;;;;;;;4971758;28;20061;-62
2023/10/01 07:00:34;;;;;;;19.80;8.98;;;;;;;;;;4972871;28;20418;-61
2023/10/01 07:03:17;;;;;;;26.35;10.77;;;;;;;;;;4971760;28;20053;-62
2023/10/01 07:05:46;;;;;;;22.20;8.90;;;;;;;;;;4964754;28;20047;-62
2023/10/01 07:08:13;;;;;;;26.00;10.13;;;;;;;;;;4969803;28;20129;-61
2023/10/01 07:10:40;;;;;;;22.35;9.65;;;;;;;;;;4973263;28;20141;-64
2023/10/01 07:13:08;;;;;;;22.90;10.10;;;;;;;;;;4976298;28;20054;-63
2023/10/01 07:15:39;;;;;;;19.85;8.88;;;;;;;;;;4962644;28;20053;-63
2023/10/01 07:18:15;;;;;;;22.25;9.75;;;;;;;;;;4956105;28;20043;-65
2023/10/01 07:20:44;;;;;;;20.23;9.23;;;;;;;;;;4970945;28;20055;-64
2023/10/01 07:23:12;;;;;;;20.98;8.73;;;;;;;;;;4964473;28;20082;-64
2023/10/01 07:25:42;;;;;;;19.90;9.40;;;;;;;;;;4964274;28;20404;-64
2023/10/01 07:28:12;;;;;;;22.98;9.98;;;;;;;;;;4956041;28;20528;-64
2023/10/01 07:30:51;;;;;;;21.30;10.23;;;;;;;;;;4965166;28;20074;-63
2023/10/01 07:33:18;;;;;;;20.33;9.60;;;;;;;;;;4965810;28;20046;-63
2023/10/01 07:35:58;;;;;;;23.23;10.77;;;;;;;;;;4968711;28;20043;-63
2023/10/01 07:38:28;;;;;;;19.90;8.82;;;;;;;;;;4965250;28;20051;-63
2023/10/01 07:40:58;;;;;;;23.67;9.43;;;;;;;;;;4965474;28;20491;-63
2023/10/01 07:43:25;;;;;;;20.03;9.77;;;;;;;;;;4969471;28;20192;-62
2023/10/01 07:45:59;;;;;;;22.40;10.15;;;;;;;;;;4966755;28;20365;-62
2023/10/01 07:48:27;;;;;;;19.77;9.50;;;;;;;;;;4972353;28;20050;-64
2023/10/01 07:50:54;;;;;;;23.15;9.38;;;;;;;;;;4968341;28;20144;-63
2023/10/01 07:53:23;;;;;;;23.45;8.80;;;;;;;;;;4969403;28;20047;-63
2023/10/01 07:55:51;;;;;;;25.08;9.88;;;;;;;;;;4969744;28;20043;-63
2023/10/01 07:58:24;;;;;;;21.48;9.43;;;;;;;;;;4964424;28;20067;-63
2023/10/01 08:00:58;;;;;;;24.02;10.07;;;;;;;;;;4965778;28;20055;-63
2023/10/01 08:03:32;;;;;;;21.90;9.35;;;;;;;;;;4964322;28;20051;-63
2023/10/01 08:06:10;;;;;;;24.88;9.57;;;;;;;;;;4977929;28;20054;-62
2023/10/01 08:08:37;;;;;;;19.33;10.23;;;;;;;;;;4964240;28;20415;-63
2023/10/01 08:11:37;;;;;;;24.95;10.18;;;;;;;;;;4962946;28;20384;-62
2023/10/01 08:13:55;;;;;;;22.40;9.23;;;;;;;;;;4967857;28;20117;-64
2023/10/01 08:16:22;;;;;;;21.17;9.73;;;;;;;;;;4976028;28;20113;-62
2023/10/01 08:18:57;;;;;;;22.42;10.15;;;;;;;;;;4973566;28;20074;-63
2023/10/01 08:21:36;;;;;;;24.52;10.20;;;;;;;;;;4962379;28;20074;-63
2023/10/01 08:24:09;;;;;;;21.80;9.20;;;;;;;;;;4972779;28;20051;-63
2023/10/01 08:26:43;;;;;;;19.92;8.68;;;;;;;;;;4961066;28;20391;-63
2023/10/01 08:29:08;;;;;;;26.40;10.10;;;;;;;;;;4957460;28;20126;-64
2023/10/01 08:32:08;;;;;;;21.80;9.95;;;;;;;;;;4963275;28;20086;-64
2023/10/01 08:34:50;;;;;;;22.27;9.23;;;;;;;;;;4971051;28;20113;-64
2023/10/01 08:37:22;;;;;;;18.33;8.93;;;;;;;;;;4967747;28;20043;-64
2023/10/01 08:39:53;;;;;;;20.80;9.20;;;;;;;;;;4966471;28;20407;-64
2023/10/01 08:42:28;;;;;;;21.92;9.10;;;;;;;;;;4970657;28;20492;-64
2023/10/01 08:45:12;;;;;;;21.77;9.57;;;;;;;;;;4964766;28;20062;-65
2023/10/01 08:47:41;;;;;;;23.83;9.57;;;;;;;;;;4961194;28;20098;-62
2023/10/01 08:50:19;;;;;;;27.85;10.70;;;;;;;;;;4962775;28;20132;-62
2023/10/01 08:52:55;;;;;;;23.17;10.20;;;;;;;;;;4968973;28;20055;-65
2023/10/01 08:55:35;;;;;;;24.33;9.35;;;;;;;;;;4965980;28;20534;-65
2023/10/01 08:58:14;;;;;;;21.85;9.20;;;;;;;;;;4967164;28;20050;-65
2023/10/01 09:00:48;;;;;;;22.98;10.88;;;;;;;;;;4960937;28;20055;-66
2023/10/01 09:03:26;;;;;;;33.80;15.85;;;;;;;;;;4965105;28;20410;-63
2023/10/01 09:06:01;;;;;;;21.98;9.32;;;;;;;;;;4971427;28;20601;-62
2023/10/01 09:08:31;;;;;;;23.00;9.32;;;;;;;;;;4963427;28;20082;-62
2023/10/01 09:10:59;;;;;;;18.25;8.15;;;;;;;;;;4970122;28;20047;-64
2023/10/01 09:13:30;;;;;;;18.50;8.85;;;;;;;;;;4970162;28;20499;-64
2023/10/01 09:16:10;;;;;;;22.27;10.55;;;;;;;;;;4968500;28;20485;-64
2023/10/01 09:19:01;;;;;;;22.55;9.98;;;;;;;;;;4970107;28;20414;-63
2023/10/01 09:21:38;;;;;;;21.95;9.82;;;;;;;;;;4967489;28;20051;-63
2023/10/01 09:24:31;;;;;;;21.65;9.38;;;;;;;;;;4970536;28;20057;-61
2023/10/01 09:27:08;;;;;;;23.30;10.63;;;;;;;;;;4965681;28;20722;-63
2023/10/01 09:29:43;;;;;;;19.35;8.48;;;;;;;;;;4969113;28;20057;-62
2023/10/01 09:32:11;;;;;;;19.27;8.32;;;;;;;;;;4964939;28;20078;-63
2023/10/01 09:34:46;;;;;;;20.73;9.10;;;;;;;;;;4966246;28;20054;-62
2023/10/01 09:37:30;;;;;;;19.05;7.95;;;;;;;;;;4968584;28;20046;-63
2023/10/01 09:40:03;;;;;;;19.40;8.70;;;;;;;;;;4964450;28;20046;-62
2023/10/01 09:42:31;;;;;;;17.90;8.13;;;;;;;;;;4970165;28;20061;-63
2023/10/01 09:45:09;;;;;;;24.40;9.10;;;;;;;;;;4966479;28;20138;-64
2023/10/01 09:47:36;;;;;;;21.45;8.50;;;;;;;;;;4967501;28;20061;-64
2023/10/01 09:50:05;;;;;;;18.05;7.70;;;;;;;;;;4966514;28;20173;-64
2023/10/01 09:52:48;;;;;;;19.25;8.15;;;;;;;;;;4968153;28;20435;-63
2023/10/01 09:55:26;;;;;;;19.83;8.75;;;;;;;;;;4968384;28;20070;-63
2023/10/01 09:57:54;;;;;;;19.88;9.48;;;;;;;;;;4969982;28;20546;-65
2023/10/01 10:00:39;;;;;;;20.20;9.45;;;;;;;;;;4972376;28;20042;-63
2023/10/01 10:03:11;;;;;;;18.45;8.32;;;;;;;;;;4965167;28;20046;-63
2023/10/01 10:05:40;;;;;;;21.42;8.77;;;;;;;;;;4968902;28;20065;-62
2023/10/01 10:08:15;;;;;;;17.35;8.50;;;;;;;;;;4969007;28;20051;-65
2023/10/01 10:10:48;;;;;;;20.25;9.77;;;;;;;;;;4968574;28;20491;-64
2023/10/01 10:13:37;;;;;;;18.80;8.50;;;;;;;;;;4965783;28;20071;-64
2023/10/01 10:19:12;;;;;;;19.30;9.00;;;;;;;;;;4951910;28;20145;-65
2023/10/01 10:22:12;;;;;;;23.98;8.85;;;;;;;;;;4961377;28;20098;-58
2023/10/01 10:24:45;;;;;;;;;;;;;;;;;;4955829;28;20513;-65
2023/10/01 10:27:17;;;;;;;19.35;7.95;;;;;;;;;;4958335;28;19932;-62
2023/10/01 10:30:21;;;;;;;19.88;8.23;;;;;;;;;;4966621;28;20154;-62
2023/10/01 10:33:29;;;;;;;21.95;8.73;;;;;;;;;;4965883;28;20534;-61
2023/10/01 10:36:27;;;;;;;21.13;9.65;;;;;;;;;;4962428;28;20133;-62
2023/10/01 10:38:54;;;;;;;19.92;8.32;;;;;;;;;;4963608;28;20046;-61
2023/10/01 10:41:25;;;;;;;19.88;7.88;;;;;;;;;;4971401;28;20130;-62
2023/10/01 10:44:08;;;;;;;20.02;9.13;;;;;;;;;;4967006;28;20051;-62
2023/10/01 10:47:04;;;;;;;22.13;8.57;;;;;;;;;;4961507;28;20126;-60
2023/10/01 10:49:50;;;;;;;18.73;9.65;;;;;;;;;;4962143;28;20058;-62
2023/10/01 10:52:31;;;;;;;20.05;7.43;;;;;;;;;;4975268;28;20051;-62
2023/10/01 10:55:15;;;;;;;;;;;;;;;;;;4964641;28;20050;-62
2023/10/01 10:57:48;;;;;;;19.98;8.65;;;;;;;;;;4970605;28;20317;-57
2023/10/01 11:00:23;;;;;;;18.50;7.40;;;;;;;;;;4964264;28;20562;-61
2023/10/01 11:02:55;;;;;;;18.30;8.38;;;;;;;;;;4965384;28;20130;-62
2023/10/01 11:05:23;;;;;;;18.50;8.15;;;;;;;;;;4966458;28;20047;-64
2023/10/01 11:07:58;;;;;;;21.05;9.20;;;;;;;;;;4973028;28;20046;-66
2023/10/01 11:10:27;;;;;;;21.55;9.27;;;;;;;;;;4963710;28;20058;-63
2023/10/01 11:12:54;;;;;;;20.40;9.02;;;;;;;;;;4964533;28;20568;-62
2023/10/01 11:15:23;;;;;;;19.95;8.48;;;;;;;;;;4962954;28;20411;-63
2023/10/01 11:17:59;;;;;;;18.85;9.02;;;;;;;;;;4969703;28;20153;-63
2023/10/01 11:20:33;;;;;;;20.85;8.70;;;;;;;;;;4976925;28;20058;-62
2023/10/01 11:22:59;;;;;;;19.48;8.38;;;;;;;;;;4972484;28;20422;-61
2023/10/01 11:25:27;;;;;;;22.50;8.80;;;;;;;;;;4972909;28;20471;-63
2023/10/01 11:28:04;;;;;;;19.10;8.40;;;;;;;;;;4974459;28;20141;-61
2023/10/01 11:30:34;;;;;;;21.20;8.65;;;;;;;;;;4971337;28;20102;-62
2023/10/01 11:33:14;;;;;;;20.70;9.48;;;;;;;;;;4971320;28;20062;-62
2023/10/01 11:35:59;;;;;;;20.65;8.20;;;;;;;;;;4975095;28;20051;-63
2023/10/01 11:38:26;;;;;;;19.98;8.15;;;;;;;;;;4970381;28;20160;-62
2023/10/01 11:41:06;;;;;;;22.33;8.77;;;;;;;;;;4971183;28;20055;-63
2023/10/01 11:43:38;;;;;;;21.60;8.20;;;;;;;;;;4971442;28;20066;-61
2023/10/01 11:46:19;;;;;;;19.23;8.38;;;;;;;;;;4971329;28;20583;-64
2023/10/01 11:48:57;;;;;;;20.20;8.70;;;;;;;;;;4975309;28;20416;-63
2023/10/01 11:51:42;;;;;;;18.83;8.15;;;;;;;;;;4970082;28;20553;-63
2023/10/01 11:54:09;;;;;;;19.63;8.82;;;;;;;;;;4982945;28;20047;-60
2023/10/01 11:56:37;;;;;;;19.15;7.80;;;;;;;;;;4973437;28;20047;-61
2023/10/01 11:59:08;;;;;;;20.08;8.52;;;;;;;;;;4978316;28;20043;-62
2023/10/01 12:01:39;;;;;;;20.20;8.75;;;;;;;;;;4969844;28;20054;-62
2023/10/01 12:04:07;;;;;;;19.13;8.70;;;;;;;;;;4970832;28;20079;-62
2023/10/01 12:06:35;;;;;;;20.15;8.32;;;;;;;;;;4971773;28;20486;-65
2023/10/01 12:09:05;;;;;;;17.90;9.00;;;;;;;;;;4969210;28;20051;-62
2023/10/01 12:11:32;;;;;;;17.98;7.75;;;;;;;;;;4969974;28;20047;-64
2023/10/01 12:14:08;;;;;;;18.50;7.40;;;;;;;;;;4972886;28;20078;-63
2023/10/01 12:16:39;;;;;;;18.38;8.30;;;;;;;;;;4970493;28;20046;-64
2023/10/01 12:19:24;;;;;;;18.17;7.95;;;;;;;;;;4974270;28;20144;-63
2023/10/01 12:22:05;;;;;;;18.85;8.20;;;;;;;;;;4970754;28;20057;-63
2023/10/01 12:24:39;;;;;;;17.92;7.30;;;;;;;;;;4965303;28;20054;-63
2023/10/01 12:27:07;;;;;;;17.15;7.90;;;;;;;;;;4970454;28;20051;-62
2023/10/01 12:29:43;;;;;;;19.88;7.88;;;;;;;;;;4970656;28;20077;-63
2023/10/01 12:32:12;;;;;;;17.73;8.25;;;;;;;;;;4969158;28;20050;-63
2023/10/01 12:34:39;;;;;;;20.75;8.45;;;;;;;;;;4972770;28;20058;-63
2023/10/01 12:37:35;;;;;;;19.10;8.27;;;;;;;;;;4968371;28;20051;-64
2023/10/01 12:40:14;;;;;;;18.25;9.18;;;;;;;;;;4967320;28;20051;-63
2023/10/01 12:42:41;;;;;;;19.05;7.97;;;;;;;;;;4970879;28;20525;-61
2023/10/01 12:45:14;;;;;;;20.05;8.70;;;;;;;;;;4966780;28;20582;-61
2023/10/01 12:47:50;;;;;;;17.48;7.90;;;;;;;;;;4966993;28;20207;-65
2023/10/01 12:50:26;;;;;;;18.52;8.20;;;;;;;;;;4969476;28;20437;-63
2023/10/01 12:55:39;;;;;;;19.88;7.53;;;;;;;;;;4968943;28;20093;-63
2023/10/01 12:58:05;;;;;;;17.60;7.70;;;;;;;;;;4967818;28;20638;-63
2023/10/01 13:00:44;;;;;;;18.77;8.00;;;;;;;;;;4970084;28;20079;-62
2023/10/01 13:03:16;;;;;;;20.58;8.73;;;;;;;;;;4968845;28;20057;-60
2023/10/01 13:05:43;;;;;;;18.05;8.15;;;;;;;;;;4968765;28;20046;-67
2023/10/01 13:08:11;;;;;;;17.42;7.57;;;;;;;;;;4974435;28;20129;-62
2023/10/01 13:10:38;;;;;;;19.42;8.48;;;;;;;;;;4969781;28;20090;-63
2023/10/01 13:13:07;;;;;;;17.15;7.85;;;;;;;;;;4969916;28;20046;-64
2023/10/01 13:15:33;;;;;;;17.17;9.27;;;;;;;;;;4969837;28;20511;-62
2023/10/01 13:18:02;;;;;;;17.50;8.73;;;;;;;;;;4968353;28;20061;-61
2023/10/01 13:20:29;;;;;;;17.48;8.70;;;;;;;;;;4962717;28;20051;-64
2023/10/01 13:23:06;;;;;;;19.73;8.80;;;;;;;;;;4969770;28;20050;-62
2023/10/01 13:25:36;;;;;;;16.95;8.02;;;;;;;;;;4970905;28;20618;-63
2023/10/01 13:28:04;;;;;;;16.60;8.13;;;;;;;;;;4968181;28;20051;-62
2023/10/01 13:30:31;;;;;;;18.25;8.40;;;;;;;;;;4969679;28;20094;-63
2023/10/01 13:33:14;;;;;;;17.27;8.05;;;;;;;;;;4970114;28;20157;-62
2023/10/01 13:35:53;;;;;;;16.23;8.20;;;;;;;;;;4972992;28;20046;-63
2023/10/01 13:38:52;;;;;;;18.35;7.47;;;;;;;;;;4969393;28;20101;-59
2023/10/01 14:08:44;;;;;;;16.20;8.25;;;;;;;;;;4968975;28;20057;-63
2023/10/01 14:11:12;;;;;;;18.02;8.05;;;;;;;;;;4973342;28;20042;-62
2023/10/01 14:13:41;;;;;;;16.50;7.05;;;;;;;;;;4964472;28;20083;-63
2023/10/01 14:16:12;;;;;;;18.10;8.13;;;;;;;;;;4964191;28;20150;-66
2023/10/01 14:18:39;;;;;;;17.05;7.28;;;;;;;;;;4972900;28;20050;-63
2023/10/01 14:21:13;;;;;;;16.73;6.97;;;;;;;;;;4962229;28;20047;-61
2023/10/01 14:23:42;;;;;;;18.50;7.88;;;;;;;;;;4981012;28;20660;-62
2023/10/01 14:26:13;;;;;;;19.30;8.15;;;;;;;;;;4975694;28;20121;-63
2023/10/01 14:28:45;;;;;;;18.02;8.38;;;;;;;;;;4980358;28;20417;-64
2023/10/01 14:31:12;;;;;;;16.73;7.65;;;;;;;;;;4965014;28;20049;-63
2023/10/01 14:33:40;;;;;;;17.80;8.48;;;;;;;;;;4972667;28;20078;-66
2023/10/01 14:36:10;;;;;;;15.98;7.25;;;;;;;;;;4974414;28;20057;-64
2023/10/01 14:38:38;;;;;;;16.42;7.82;;;;;;;;;;4976145;28;20093;-65
2023/10/01 14:41:09;;;;;;;16.77;7.53;;;;;;;;;;4970434;28;20101;-64
2023/10/01 14:43:41;;;;;;;16.38;8.63;;;;;;;;;;4972711;28;20051;-63
2023/10/01 14:46:13;;;;;;;16.15;8.25;;;;;;;;;;4969296;28;20054;-64
2023/10/01 14:48:45;;;;;;;16.67;8.15;;;;;;;;;;4967303;28;20039;-63
2023/10/01 14:51:13;;;;;;;14.90;7.45;;;;;;;;;;4967228;28;20062;-63
2023/10/01 14:53:39;;;;;;;16.05;7.75;;;;;;;;;;4968385;28;20053;-63
2023/10/01 14:56:06;;;;;;;16.35;7.28;;;;;;;;;;4979283;28;20095;-63
2023/10/01 14:58:34;;;;;;;19.58;8.77;;;;;;;;;;4974121;28;20141;-62
2023/10/01 15:01:01;;;;;;;17.13;7.68;;;;;;;;;;4978076;28;20053;-63
2023/10/01 15:03:35;;;;;;;15.07;7.57;;;;;;;;;;4966285;28;20049;-63
2023/10/01 15:06:06;;;;;;;16.95;8.00;;;;;;;;;;4975552;28;20043;-64
2023/10/01 15:08:34;;;;;;;16.40;7.80;;;;;;;;;;4972370;28;20122;-67
2023/10/01 15:11:11;;;;;;;16.70;7.70;;;;;;;;;;4972532;28;20042;-63
2023/10/01 15:13:41;;;;;;;17.70;7.32;;;;;;;;;;4976675;28;20051;-64
2023/10/01 15:16:12;;;;;;;13.63;7.43;;;;;;;;;;4966458;28;20058;-67
2023/10/01 15:18:43;;;;;;;17.83;7.30;;;;;;;;;;4972815;28;20134;-62
2023/10/01 15:21:19;;;;;;;15.07;6.97;;;;;;;;;;4967967;28;20479;-64
2023/10/01 15:23:46;;;;;;;15.85;7.47;;;;;;;;;;4974215;28;20046;-64
2023/10/01 15:26:13;;;;;;;16.52;7.93;;;;;;;;;;4969040;28;20051;-65
2023/10/01 15:28:50;;;;;;;17.73;8.30;;;;;;;;;;4971763;28;20129;-61
2023/10/01 15:31:30;;;;;;;16.88;7.82;;;;;;;;;;4973600;28;20688;-64
2023/10/01 15:34:01;;;;;;;15.27;6.97;;;;;;;;;;4964514;28;20546;-63
2023/10/01 15:36:46;;;;;;;15.52;7.90;;;;;;;;;;4975145;28;20118;-62
2023/10/01 15:39:15;;;;;;;15.32;7.90;;;;;;;;;;4969828;28;20057;-62
2023/10/01 15:41:43;;;;;;;16.65;7.65;;;;;;;;;;4959791;28;20071;-63